Aviation Digital Data Service (ADDS)

Output produced by METARs form (2117 UTC 24 October 2014)
found at http://www.aviationweather.gov/adds/metars/
 
KEWR 242058Z 2421/2524 33011G16KT P6SM SCT050 
     FM242300 33010KT P6SM SCT050 
     FM250400 31007KT P6SM SCT250 
     FM251500 29008KT P6SM FEW040 SCT250